Del Norte — WDC2280 — position and weather

sailwx.info

Track history (hours):
 
Tides and Currents Weather Stations Pressure Air Temp Water Temp Dewpoint Dewpoint Depression Visibility Wind Speed Wind Dir Waves Ship Positions

Del Norte

Owner: Golden Gate Bridge,Hwy & Transportation District, Larkspur, CA. More information available from US FCC via Universal Licensing System and Coast Guard Vessel Documentation Center.

Last reported at 2016-Dec-21 16:28 UTC. Time now 2017-Jan-24 23:25 UTC.
Position N 37°47' W 122°17'.
Warning: this ship's position is 34 days out of date.

Length 49 m.

Type: High speed craft. MMSI: 366990520.

Date/timePositionNaut miles runAvg speedWind from/ knotsBaromVisibWave heightAir tempDewpointWater temp
2016-Dec-21 16:28N 37°47' W 122°17'1313.9
2016-Dec-21 15:32N 37°56' W 122°29'1 1.1
2016-Dec-21 14:33N 37°57' W 122°31'8 0.7
2016-Dec-21 03:33N 37°51' W 122°24'8 7.8
2016-Dec-21 02:34N 37°57' W 122°30'5 5.5
2016-Dec-21 01:33N 37°53' W 122°26'5 5.2
2016-Dec-21 00:34N 37°48' W 122°24'1010.3
2016-Dec-20 23:33N 37°57' W 122°30'5 4.6
2016-Dec-20 22:34N 37°54' W 122°26'5 4.6
2016-Dec-20 21:33N 37°57' W 122°31'0 0.1
2016-Dec-20 20:34N 37°57' W 122°31'0 0.1
2016-Dec-20 19:33N 37°57' W 122°30'7 7.4
2016-Dec-20 18:34N 37°51' W 122°25'6 5.5
2016-Dec-20 17:33N 37°56' W 122°28'0 0.4
2016-Dec-20 16:33N 37°56' W 122°29'9 9.0
2016-Dec-20 15:33N 37°48' W 122°24'4 3.8
2016-Dec-20 14:34N 37°52' W 122°24'7 7.1
2016-Dec-20 13:33N 37°57' W 122°31'0 0.0
2016-Dec-20 04:12N 37°57' W 122°30'710.8
2016-Dec-20 03:34N 37°52' W 122°24'7 6.9
2016-Dec-20 02:33N 37°57' W 122°30'6 6.5
2016-Dec-20 01:33N 37°52' W 122°25'4 4.3
2016-Dec-20 00:34N 37°48' W 122°24'1010.4
2016-Dec-19 23:33N 37°57' W 122°30'4 4.3
2016-Dec-19 22:34N 37°54' W 122°27'4 4.3
2016-Dec-19 21:33N 37°57' W 122°31'0 0.0
2016-Dec-19 20:33N 37°57' W 122°31'0 0.0
2016-Dec-19 19:34N 37°57' W 122°31'7 7.0
2016-Dec-19 18:34N 37°51' W 122°25'4 4.5
2016-Dec-19 17:33N 37°55' W 122°28'0 0.3
2016-Dec-19 16:34N 37°55' W 122°28'8 8.4
2016-Dec-19 15:34N 37°48' W 122°24'4 3.7
2016-Dec-19 14:34N 37°51' W 122°24'7 7.1
2016-Dec-19 13:34N 37°57' W 122°31'  
2016-Dec-17 04:21N 37°57' W 122°31'8 9.5
2016-Dec-17 03:33N 37°51' W 122°24'7 7.3
2016-Dec-17 02:33N 37°57' W 122°30'6 6.4
2016-Dec-17 01:34N 37°52' W 122°25'4 4.1
2016-Dec-17 00:34N 37°48' W 122°24'1010.3
2016-Dec-16 23:33N 37°57' W 122°30'4 3.7
2016-Dec-16 22:33N 37°54' W 122°27'4 3.7
2016-Dec-16 21:33N 37°57' W 122°31'0 0.0
2016-Dec-16 20:33N 37°57' W 122°31'0 0.0
2016-Dec-16 19:33N 37°57' W 122°31'8 8.0
2016-Dec-16 18:34N 37°50' W 122°24'7 6.6
2016-Dec-16 17:33N 37°56' W 122°29'1 0.9
2016-Dec-16 16:33N 37°55' W 122°28'8 8.4
2016-Dec-16 15:33N 37°48' W 122°24'4 3.7
2016-Dec-16 14:34N 37°51' W 122°24'7 7.1
2016-Dec-16 13:32N 37°57' W 122°31'0 0.0
2016-Dec-16 04:33N 37°57' W 122°31'8 8.3
2016-Dec-16 03:34N 37°50' W 122°24'8 8.1
2016-Dec-16 02:33N 37°57' W 122°30'5 4.6
2016-Dec-16 01:34N 37°53' W 122°26'6 6.0
2016-Dec-16 00:34N 37°48' W 122°24'1010.2
2016-Dec-15 23:33N 37°57' W 122°30'4 4.3
2016-Dec-15 22:34N 37°54' W 122°26'4 0.2
2016-Dec-15 04:33N 37°57' W 122°30'8 7.7
2016-Dec-15 03:34N 37°51' W 122°24'8 7.6
2016-Dec-15 02:33N 37°57' W 122°30'7 6.8
2016-Dec-15 01:34N 37°52' W 122°25'4 3.9
2016-Dec-15 00:33N 37°48' W 122°24'1010.3
2016-Dec-14 23:33N 37°57' W 122°30'3 2.9
2016-Dec-14 22:34N 37°55' W 122°27'3 3.0
2016-Dec-14 21:33N 37°57' W 122°31'0 0.0
2016-Dec-14 20:33N 37°57' W 122°31'0 0.0
2016-Dec-14 19:33N 37°57' W 122°31'8 8.1
2016-Dec-14 18:34N 37°50' W 122°24'7 6.7
2016-Dec-14 17:33N 37°56' W 122°29'1 1.0
2016-Dec-14 16:33N 37°56' W 122°28'9 8.6
2016-Dec-14 15:33N 37°48' W 122°24'3 3.1
2016-Dec-14 14:34N 37°51' W 122°24'8 7.7
2016-Dec-14 13:33N 37°57' W 122°30'8 0.8
2016-Dec-14 03:34N 37°51' W 122°24'8 7.7
2016-Dec-14 02:33N 37°57' W 122°30'6 6.4
2016-Dec-14 01:34N 37°52' W 122°25'4 4.2
2016-Dec-14 00:34N 37°48' W 122°24'1010.4
2016-Dec-13 23:33N 37°57' W 122°30'4 3.6
2016-Dec-13 22:34N 37°54' W 122°27'4 3.7
2016-Dec-13 21:33N 37°57' W 122°31'0 0.0
2016-Dec-13 20:33N 37°57' W 122°31'0 0.0
2016-Dec-13 19:33N 37°57' W 122°31'8 8.1
2016-Dec-13 18:34N 37°50' W 122°24'7 6.8
2016-Dec-13 17:33N 37°56' W 122°29'1 1.2
2016-Dec-13 16:33N 37°55' W 122°28'8 8.3
2016-Dec-13 15:34N 37°48' W 122°24'2 2.4
2016-Dec-13 14:34N 37°50' W 122°24'8 8.3
2016-Dec-13 13:33N 37°57' W 122°31'7 0.7
2016-Dec-13 03:34N 37°52' W 122°24'7 6.8
2016-Dec-13 02:33N 37°57' W 122°30'4 4.4
2016-Dec-13 01:34N 37°54' W 122°26'6 6.3
2016-Dec-13 00:33N 37°48' W 122°24'1010.3
2016-Dec-12 23:33N 37°57' W 122°30'4 4.1
2016-Dec-12 22:33N 37°54' W 122°27'4 4.0
2016-Dec-12 21:33N 37°57' W 122°31'0 0.0
2016-Dec-12 20:33N 37°57' W 122°31'0 0.1
2016-Dec-12 19:33N 37°57' W 122°30'0 0.1
2016-Dec-12 18:33N 37°57' W 122°31'2 1.9
2016-Dec-12 17:34N 37°56' W 122°28'0 0.1
2016-Dec-12 16:33N 37°56' W 122°29'9 9.0
2016-Dec-12 15:34N 37°48' W 122°24'3 3.4
2016-Dec-12 14:34N 37°51' W 122°24'7 7.2
2016-Dec-12 13:31N 37°57' W 122°30'  
Track history (hours):
 
Tides and Currents Weather Stations Pressure Air Temp Water Temp Dewpoint Dewpoint Depression Visibility Wind Speed Wind Dir Waves Ship Positions

Del Norte

Owner: Golden Gate Bridge,Hwy & Transportation District, Larkspur, CA. More information available from US FCC via Universal Licensing System and Coast Guard Vessel Documentation Center.

Last reported at 2016-Dec-21 16:28 UTC. Time now 2017-Jan-24 23:25 UTC.
Position N 37°47' W 122°17'.
Warning: this ship's position is 34 days out of date.

Length 49 m.

Type: High speed craft. MMSI: 366990520.

Date/timePositionNaut miles runAvg speedWind from/ knotsBaromVisibWave heightAir tempDewpointWater temp
2016-Dec-21 16:28N 37°47' W 122°17'1313.9
2016-Dec-21 15:32N 37°56' W 122°29'1 1.1
2016-Dec-21 14:33N 37°57' W 122°31'8 0.7
2016-Dec-21 03:33N 37°51' W 122°24'8 7.8
2016-Dec-21 02:34N 37°57' W 122°30'5 5.5
2016-Dec-21 01:33N 37°53' W 122°26'5 5.2
2016-Dec-21 00:34N 37°48' W 122°24'1010.3
2016-Dec-20 23:33N 37°57' W 122°30'5 4.6
2016-Dec-20 22:34N 37°54' W 122°26'5 4.6
2016-Dec-20 21:33N 37°57' W 122°31'0 0.1
2016-Dec-20 20:34N 37°57' W 122°31'0 0.1
2016-Dec-20 19:33N 37°57' W 122°30'7 7.4
2016-Dec-20 18:34N 37°51' W 122°25'6 5.5
2016-Dec-20 17:33N 37°56' W 122°28'0 0.4
2016-Dec-20 16:33N 37°56' W 122°29'9 9.0
2016-Dec-20 15:33N 37°48' W 122°24'4 3.8
2016-Dec-20 14:34N 37°52' W 122°24'7 7.1
2016-Dec-20 13:33N 37°57' W 122°31'0 0.0
2016-Dec-20 04:12N 37°57' W 122°30'710.8
2016-Dec-20 03:34N 37°52' W 122°24'7 6.9
2016-Dec-20 02:33N 37°57' W 122°30'6 6.5
2016-Dec-20 01:33N 37°52' W 122°25'4 4.3
2016-Dec-20 00:34N 37°48' W 122°24'1010.4
2016-Dec-19 23:33N 37°57' W 122°30'4 4.3
2016-Dec-19 22:34N 37°54' W 122°27'4 4.3
2016-Dec-19 21:33N 37°57' W 122°31'0 0.0
2016-Dec-19 20:33N 37°57' W 122°31'0 0.0
2016-Dec-19 19:34N 37°57' W 122°31'7 7.0
2016-Dec-19 18:34N 37°51' W 122°25'4 4.5
2016-Dec-19 17:33N 37°55' W 122°28'0 0.3
2016-Dec-19 16:34N 37°55' W 122°28'8 8.4
2016-Dec-19 15:34N 37°48' W 122°24'4 3.7
2016-Dec-19 14:34N 37°51' W 122°24'7 7.1
2016-Dec-19 13:34N 37°57' W 122°31'  
2016-Dec-17 04:21N 37°57' W 122°31'8 9.5
2016-Dec-17 03:33N 37°51' W 122°24'7 7.3
2016-Dec-17 02:33N 37°57' W 122°30'6 6.4
2016-Dec-17 01:34N 37°52' W 122°25'4 4.1
2016-Dec-17 00:34N 37°48' W 122°24'1010.3
2016-Dec-16 23:33N 37°57' W 122°30'4 3.7
2016-Dec-16 22:33N 37°54' W 122°27'4 3.7
2016-Dec-16 21:33N 37°57' W 122°31'0 0.0
2016-Dec-16 20:33N 37°57' W 122°31'0 0.0
2016-Dec-16 19:33N 37°57' W 122°31'8 8.0
2016-Dec-16 18:34N 37°50' W 122°24'7 6.6
2016-Dec-16 17:33N 37°56' W 122°29'1 0.9
2016-Dec-16 16:33N 37°55' W 122°28'8 8.4
2016-Dec-16 15:33N 37°48' W 122°24'4 3.7
2016-Dec-16 14:34N 37°51' W 122°24'7 7.1
2016-Dec-16 13:32N 37°57' W 122°31'0 0.0
2016-Dec-16 04:33N 37°57' W 122°31'8 8.3
2016-Dec-16 03:34N 37°50' W 122°24'8 8.1
2016-Dec-16 02:33N 37°57' W 122°30'5 4.6
2016-Dec-16 01:34N 37°53' W 122°26'6 6.0
2016-Dec-16 00:34N 37°48' W 122°24'1010.2
2016-Dec-15 23:33N 37°57' W 122°30'4 4.3
2016-Dec-15 22:34N 37°54' W 122°26'4 0.2
2016-Dec-15 04:33N 37°57' W 122°30'8 7.7
2016-Dec-15 03:34N 37°51' W 122°24'8 7.6
2016-Dec-15 02:33N 37°57' W 122°30'7 6.8
2016-Dec-15 01:34N 37°52' W 122°25'4 3.9
2016-Dec-15 00:33N 37°48' W 122°24'1010.3
2016-Dec-14 23:33N 37°57' W 122°30'3 2.9
2016-Dec-14 22:34N 37°55' W 122°27'3 3.0
2016-Dec-14 21:33N 37°57' W 122°31'0 0.0
2016-Dec-14 20:33N 37°57' W 122°31'0 0.0
2016-Dec-14 19:33N 37°57' W 122°31'8 8.1
2016-Dec-14 18:34N 37°50' W 122°24'7 6.7
2016-Dec-14 17:33N 37°56' W 122°29'1 1.0
2016-Dec-14 16:33N 37°56' W 122°28'9 8.6
2016-Dec-14 15:33N 37°48' W 122°24'3 3.1
2016-Dec-14 14:34N 37°51' W 122°24'8 7.7
2016-Dec-14 13:33N 37°57' W 122°30'8 0.8
2016-Dec-14 03:34N 37°51' W 122°24'8 7.7
2016-Dec-14 02:33N 37°57' W 122°30'6 6.4
2016-Dec-14 01:34N 37°52' W 122°25'4 4.2
2016-Dec-14 00:34N 37°48' W 122°24'1010.4
2016-Dec-13 23:33N 37°57' W 122°30'4 3.6
2016-Dec-13 22:34N 37°54' W 122°27'4 3.7
2016-Dec-13 21:33N 37°57' W 122°31'0 0.0
2016-Dec-13 20:33N 37°57' W 122°31'0 0.0
2016-Dec-13 19:33N 37°57' W 122°31'8 8.1
2016-Dec-13 18:34N 37°50' W 122°24'7 6.8
2016-Dec-13 17:33N 37°56' W 122°29'1 1.2
2016-Dec-13 16:33N 37°55' W 122°28'8 8.3
2016-Dec-13 15:34N 37°48' W 122°24'2 2.4
2016-Dec-13 14:34N 37°50' W 122°24'8 8.3
2016-Dec-13 13:33N 37°57' W 122°31'7 0.7
2016-Dec-13 03:34N 37°52' W 122°24'7 6.8
2016-Dec-13 02:33N 37°57' W 122°30'4 4.4
2016-Dec-13 01:34N 37°54' W 122°26'6 6.3
2016-Dec-13 00:33N 37°48' W 122°24'1010.3
2016-Dec-12 23:33N 37°57' W 122°30'4 4.1
2016-Dec-12 22:33N 37°54' W 122°27'4 4.0
2016-Dec-12 21:33N 37°57' W 122°31'0 0.0
2016-Dec-12 20:33N 37°57' W 122°31'0 0.1
2016-Dec-12 19:33N 37°57' W 122°30'0 0.1
2016-Dec-12 18:33N 37°57' W 122°31'2 1.9
2016-Dec-12 17:34N 37°56' W 122°28'0 0.1
2016-Dec-12 16:33N 37°56' W 122°29'9 9.0
2016-Dec-12 15:34N 37°48' W 122°24'3 3.4
2016-Dec-12 14:34N 37°51' W 122°24'7 7.2
2016-Dec-12 13:31N 37°57' W 122°30'  

Dump ship's entire track history